Scilly, United Kingdom
Current Conditions -  °F | °C
As of 4:20 PM on Thursday 20 Nov 2014 (Local Time) from EGHE Reporting Station
Few Clouds Few Clouds  
Wind Chill: 54°   Ceiling: Unl
Heat Index: 54°   Visibility: 6mi
Dew Point: 50°   Wind: 23mph
Humidity: 88%   Direction: 100°E
Pressure: 30.09"   Gusts: NA
Location:  49.93°N, 6.31°W
Report Text: EGHE 201620Z 10020KT 9999 FEW012 12/10 Q1019
Loading
Personal Weather Stations






























Interactive Weather Map New forecast layout! Learn more

10-Day Weather Forecast

Advertisements
Track Severe Weather on mobile